METAR Data
IDs: Format: Raw Decoded Include TAF

Data at: 2207 UTC 29 May 2020

METAR for:KLWD (Lamoni Muni, IA, US)
Text:KLWD 292153Z AUTO 32011KT 10SM CLR 23/09 A3013 RMK AO2 SLP199 T02280094
Temperature: 22.8°C ( 73°F)
Dewpoint: 9.4°C ( 49°F) [RH = 42%]
Pressure (altimeter):30.13 inches Hg (1020.4 mb) [Sea level pressure: 1019.9 mb]
Winds:from the NW (320 degrees) at 13 MPH (11 knots; 5.7 m/s)
Visibility:10 or more sm (16+ km)
Ceiling:at least 12,000 feet AGL
Clouds:sky clear below 12,000 feet AGL
QC Flag:automated observation with no human augmentation